^^
Saratoga-Weather Station Historical Data
Daily Summary for May 25, 2022 Units:  Metric    English   Both
Daily Weekly Monthly Yearly Custom
  High: Low: Average:
Temperature: 20.3 °C 8.2 °C 15.1 °C
Dew Point: 10.5 °C 7.1 °C 8.9 °C
Humidity: 95% 47% 69%
Wind Speed: 16.3km/h 0km/h 4.3km/h
Wind Gust: 24.1km/h - -
Wind- - West
Pressure: 1019.3 hPa 1012.2 hPa -
Precipitation: 0.0 mm    
Historical Graphs
 
 
Tabular Data for May 25, 2022
Time Temperature Dew Point Pressure Wind Wind Speed Wind Gust Humidity Rainfall Rate (Hourly) solar
00:04 12.5 °C 9.5 °C 1012.2 hPa Calm   1.6 km/h 82% 0.0 mm 0 W/m2
00:09 12.3 °C 9.3 °C 1012.5 hPa Calm   3.2 km/h 82% 0.0 mm 0 W/m2
00:14 12.2 °C 9.4 °C 1012.5 hPa SW 1.4 km/h 4.8 km/h 83% 0.0 mm 0 W/m2
00:19 12.2 °C 9.4 °C 1012.5 hPa NW 1.4 km/h 1.6 km/h 83% 0.0 mm 0 W/m2
00:24 12.1 °C 9.3 °C 1012.5 hPa NW 1.4 km/h 1.6 km/h 83% 0.0 mm 0 W/m2
00:29 11.9 °C 9.3 °C 1012.5 hPa Calm   1.6 km/h 84% 0.0 mm 0 W/m2
00:34 11.8 °C 9.2 °C 1012.5 hPa Calm     84% 0.0 mm 0 W/m2
00:39 11.7 °C 9.1 °C 1012.5 hPa Calm   1.6 km/h 84% 0.0 mm 0 W/m2
00:44 11.6 °C 9.2 °C 1012.5 hPa Calm     85% 0.0 mm 0 W/m2
00:49 11.4 °C 9 °C 1012.5 hPa Calm     85% 0.0 mm 0 W/m2
00:59 11 °C 8.7 °C 1012.5 hPa Calm     86% 0.0 mm 0 W/m2
01:04 10.8 °C 8.6 °C 1012.9 hPa Calm     86% 0.0 mm 0 W/m2
01:09 10.7 °C 8.6 °C 1012.9 hPa Calm     87% 0.0 mm 0 W/m2
01:14 10.6 °C 8.5 °C 1012.9 hPa Calm     87% 0.0 mm 0 W/m2
01:19 10.4 °C 8.5 °C 1012.9 hPa Calm     88% 0.0 mm 0 W/m2
01:24 10.3 °C 8.4 °C 1012.9 hPa Calm     88% 0.0 mm 0 W/m2
01:29 10.1 °C 8.2 °C 1012.9 hPa Calm     88% 0.0 mm 0 W/m2
01:34 10 °C 8.1 °C 1012.9 hPa Calm   3.2 km/h 88% 0.0 mm 0 W/m2
01:39 9.9 °C 8.2 °C 1012.9 hPa Calm     89% 0.0 mm 0 W/m2
01:44 9.8 °C 8.1 °C 1012.9 hPa NW 1.4 km/h 3.2 km/h 89% 0.0 mm 0 W/m2
01:49 9.7 °C 8.1 °C 1012.9 hPa NW 1.4 km/h 1.6 km/h 90% 0.0 mm 0 W/m2
01:54 9.7 °C 8.1 °C 1012.9 hPa Calm     90% 0.0 mm 0 W/m2
01:59 9.6 °C 8 °C 1012.9 hPa NW 1.4 km/h 1.6 km/h 90% 0.0 mm 0 W/m2
02:04 9.5 °C 7.9 °C 1012.9 hPa Calm   1.6 km/h 90% 0.0 mm 0 W/m2
02:09 9.4 °C 7.8 °C 1012.9 hPa Calm     90% 0.0 mm 0 W/m2
02:14 9.4 °C 8 °C 1012.9 hPa Calm     91% 0.0 mm 0 W/m2
02:19 9.4 °C 8 °C 1012.9 hPa Calm     91% 0.0 mm 0 W/m2
02:24 9.4 °C 8 °C 1012.9 hPa NW 3.2 km/h 3.2 km/h 91% 0.0 mm 0 W/m2
02:29 9.4 °C 8 °C 1012.9 hPa Calm   1.6 km/h 91% 0.0 mm 0 W/m2
02:34 9.4 °C 8 °C 1013.2 hPa NW 1.4 km/h 3.2 km/h 91% 0.0 mm 0 W/m2
02:39 9.6 °C 8.2 °C 1013.2 hPa NW 1.4 km/h 3.2 km/h 91% 0.0 mm 0 W/m2
02:44 9.6 °C 8.2 °C 1013.2 hPa Calm     91% 0.0 mm 0 W/m2
02:49 9.7 °C 8.3 °C 1013.2 hPa NW 1.4 km/h 4.8 km/h 91% 0.0 mm 0 W/m2
02:54 9.7 °C 8.3 °C 1013.2 hPa NW 1.4 km/h 3.2 km/h 91% 0.0 mm 0 W/m2
02:59 9.8 °C 8.4 °C 1013.2 hPa NW 1.4 km/h 4.8 km/h 91% 0.0 mm 0 W/m2
03:04 9.8 °C 8.4 °C 1013.2 hPa Calm   1.6 km/h 91% 0.0 mm 0 W/m2
03:09 9.8 °C 8.4 °C 1013.2 hPa WNW 3.2 km/h 4.8 km/h 91% 0.0 mm 0 W/m2
03:14 9.9 °C 8.5 °C 1013.2 hPa Calm     91% 0.0 mm 0 W/m2
03:19 9.9 °C 8.5 °C 1013.5 hPa WNW 3.2 km/h 3.2 km/h 91% 0.0 mm 0 W/m2
03:24 9.9 °C 8.5 °C 1013.5 hPa WNW 1.4 km/h 3.2 km/h 91% 0.0 mm 0 W/m2
03:29 9.9 °C 8.5 °C 1013.5 hPa Calm   1.6 km/h 91% 0.0 mm 0 W/m2
03:34 9.9 °C 8.5 °C 1013.5 hPa WNW 1.4 km/h 1.6 km/h 91% 0.0 mm 0 W/m2
03:39 9.9 °C 8.5 °C 1013.5 hPa Calm     91% 0.0 mm 0 W/m2
03:44 9.9 °C 8.5 °C 1013.5 hPa Calm     91% 0.0 mm 0 W/m2
03:49 9.8 °C 8.4 °C 1013.5 hPa Calm     91% 0.0 mm 0 W/m2
03:54 9.8 °C 8.4 °C 1013.5 hPa Calm     91% 0.0 mm 0 W/m2
03:59 9.7 °C 8.3 °C 1013.5 hPa Calm     91% 0.0 mm 0 W/m2
04:04 9.6 °C 8.2 °C 1013.5 hPa Calm     91% 0.0 mm 0 W/m2
04:09 9.4 °C 8 °C 1013.5 hPa Calm     91% 0.0 mm 0 W/m2
04:14 9.4 °C 8 °C 1013.5 hPa Calm     91% 0.0 mm 0 W/m2
04:19 9.3 °C 7.9 °C 1013.5 hPa Calm     91% 0.0 mm 0 W/m2
04:24 9.2 °C 7.8 °C 1013.5 hPa Calm     91% 0.0 mm 0 W/m2
04:29 9.1 °C 7.9 °C 1013.5 hPa Calm     92% 0.0 mm 0 W/m2
04:34 9.1 °C 7.9 °C 1013.5 hPa Calm     92% 0.0 mm 0 W/m2
04:39 8.9 °C 7.7 °C 1013.5 hPa Calm     92% 0.0 mm 0 W/m2
04:44 8.9 °C 7.7 °C 1013.5 hPa Calm     92% 0.0 mm 0 W/m2
04:49 8.8 °C 7.6 °C 1013.9 hPa Calm     92% 0.0 mm 0 W/m2
04:54 8.7 °C 7.5 °C 1013.9 hPa Calm     92% 0.0 mm 0 W/m2
04:59 8.7 °C 7.5 °C 1013.9 hPa Calm     92% 0.0 mm 0 W/m2
05:04 8.7 °C 7.5 °C 1014.2 hPa Calm     92% 0.0 mm 0 W/m2
05:09 8.6 °C 7.5 °C 1014.2 hPa Calm     93% 0.0 mm 0 W/m2
05:14 8.6 °C 7.5 °C 1014.2 hPa Calm     93% 0.0 mm 0 W/m2
05:19 8.6 °C 7.5 °C 1014.2 hPa Calm     93% 0.0 mm 0 W/m2
05:29 8.4 °C 7.3 °C 1014.2 hPa Calm     93% 0.0 mm 0 W/m2
05:34 8.4 °C 7.3 °C 1014.2 hPa Calm     93% 0.0 mm 0 W/m2
05:39 8.4 °C 7.3 °C 1014.2 hPa Calm     93% 0.0 mm 0 W/m2
05:44 8.3 °C 7.2 °C 1014.6 hPa Calm     93% 0.0 mm 5 W/m2
05:49 8.3 °C 7.2 °C 1014.6 hPa Calm     93% 0.0 mm 7 W/m2
05:54 8.2 °C 7.1 °C 1014.6 hPa Calm     93% 0.0 mm 9 W/m2
05:59 8.2 °C 7.1 °C 1014.6 hPa Calm     93% 0.0 mm 11 W/m2
06:04 8.2 °C 7.1 °C 1014.9 hPa Calm     93% 0.0 mm 12 W/m2
06:09 8.3 °C 7.4 °C 1014.6 hPa Calm     94% 0.0 mm 14 W/m2
06:14 8.3 °C 7.4 °C 1014.9 hPa Calm     94% 0.0 mm 16 W/m2
06:19 8.3 °C 7.4 °C 1014.6 hPa Calm     94% 0.0 mm 18 W/m2
06:24 8.3 °C 7.4 °C 1014.9 hPa Calm     94% 0.0 mm 19 W/m2
06:29 8.3 °C 7.4 °C 1014.9 hPa Calm     94% 0.0 mm 21 W/m2
06:34 8.4 °C 7.5 °C 1014.9 hPa Calm     94% 0.0 mm 23 W/m2
06:39 8.4 °C 7.5 °C 1014.9 hPa Calm     94% 0.0 mm 26 W/m2
06:44 8.4 °C 7.5 °C 1014.9 hPa Calm     94% 0.0 mm 25 W/m2
06:49 8.4 °C 7.5 °C 1015.2 hPa Calm     94% 0.0 mm 26 W/m2
06:54 8.6 °C 7.7 °C 1015.2 hPa Calm     94% 0.0 mm 25 W/m2
06:59 8.6 °C 7.7 °C 1015.2 hPa Calm     94% 0.0 mm 26 W/m2
07:04 8.7 °C 7.8 °C 1015.2 hPa Calm     94% 0.0 mm 28 W/m2
07:09 8.8 °C 7.9 °C 1015.2 hPa Calm     94% 0.0 mm 42 W/m2
07:14 9 °C 8.1 °C 1015.2 hPa Calm   1.6 km/h 94% 0.0 mm 128 W/m2
07:19 9.6 °C 8.8 °C 1015.2 hPa WNW 1.4 km/h 3.2 km/h 95% 0.0 mm 144 W/m2
07:24 10.2 °C 9.4 °C 1015.2 hPa Calm   1.6 km/h 95% 0.0 mm 156 W/m2
07:29 10.8 °C 9.7 °C 1015.2 hPa Calm   4.8 km/h 93% 0.0 mm 174 W/m2
07:34 11.7 °C 10.1 °C 1015.6 hPa Calm   3.2 km/h 90% 0.0 mm 186 W/m2
07:39 12.5 °C 10.4 °C 1015.6 hPa Calm   4.8 km/h 87% 0.0 mm 200 W/m2
07:44 13.1 °C 10.5 °C 1015.6 hPa ENE 1.4 km/h 3.2 km/h 84% 0.0 mm 216 W/m2
07:49 13.4 °C 10.4 °C 1015.6 hPa NE 1.4 km/h 3.2 km/h 82% 0.0 mm 230 W/m2
07:54 13.6 °C 10.2 °C 1015.6 hPa Calm   1.6 km/h 80% 0.0 mm 244 W/m2
07:59 13.8 °C 10.4 °C 1015.6 hPa Calm     80% 0.0 mm 258 W/m2
08:04 14.2 °C 10.2 °C 1015.9 hPa WSW 4.7 km/h 6.4 km/h 77% 0.0 mm 236 W/m2
08:09 14.1 °C 10.1 °C 1015.9 hPa West 3.2 km/h 3.2 km/h 77% 0.0 mm 128 W/m2
08:14 13.9 °C 9.9 °C 1015.9 hPa NW 6.4 km/h 6.4 km/h 77% 0.0 mm 56 W/m2
08:19 13.8 °C 10 °C 1015.9 hPa NW 4.7 km/h 6.4 km/h 78% 0.0 mm 44 W/m2
08:24 13.7 °C 9.7 °C 1015.9 hPa NW 1.4 km/h 3.2 km/h 77% 0.0 mm 44 W/m2
08:29 13.8 °C 9.8 °C 1015.9 hPa Calm   6.4 km/h 77% 0.0 mm 44 W/m2
08:34 13.9 °C 9.9 °C 1015.9 hPa West 3.2 km/h 4.8 km/h 77% 0.0 mm 42 W/m2
08:39 14.1 °C 9.7 °C 1016.3 hPa WNW 3.2 km/h 8 km/h 75% 0.0 mm 42 W/m2
08:44 14.2 °C 9.8 °C 1016.3 hPa NW 1.4 km/h 4.8 km/h 75% 0.0 mm 44 W/m2
08:49 14.4 °C 9.8 °C 1016.3 hPa NW 3.2 km/h 6.4 km/h 74% 0.0 mm 44 W/m2
08:54 14.4 °C 9.8 °C 1016.3 hPa West 6.4 km/h 8 km/h 74% 0.0 mm 44 W/m2
08:59 14.6 °C 10 °C 1016.3 hPa NW 6.4 km/h 11.3 km/h 74% 0.0 mm 44 W/m2
09:04 14.6 °C 9.8 °C 1016.6 hPa NW 6.4 km/h 6.4 km/h 73% 0.0 mm 42 W/m2
09:09 14.7 °C 9.7 °C 1016.3 hPa West 3.2 km/h 11.3 km/h 72% 0.0 mm 42 W/m2
09:14 14.7 °C 9.7 °C 1016.6 hPa West 3.2 km/h 8 km/h 72% 0.0 mm 42 W/m2
09:19 14.9 °C 9.7 °C 1016.6 hPa NNW 6.4 km/h 11.3 km/h 71% 0.0 mm 42 W/m2
09:24 14.8 °C 9.6 °C 1016.6 hPa West 9.7 km/h 14.5 km/h 71% 0.0 mm 44 W/m2
09:29 14.8 °C 9.8 °C 1016.6 hPa Calm   1.6 km/h 72% 0.0 mm 46 W/m2
09:34 15 °C 10 °C 1016.6 hPa WNW 1.4 km/h 16.1 km/h 72% 0.0 mm 46 W/m2
09:39 15.2 °C 10.2 °C 1016.6 hPa SSW 3.2 km/h 12.9 km/h 72% 0.0 mm 47 W/m2
09:44 15.3 °C 10.5 °C 1016.6 hPa West 3.2 km/h 14.5 km/h 73% 0.0 mm 53 W/m2
09:49 15.4 °C 10 °C 1016.6 hPa West 6.4 km/h 12.9 km/h 70% 0.0 mm 102 W/m2
09:54 15.4 °C 10 °C 1016.6 hPa West 3.2 km/h 11.3 km/h 70% 0.0 mm 93 W/m2
09:59 15.4 °C 9.7 °C 1016.6 hPa NW 3.2 km/h 8 km/h 69% 0.0 mm 67 W/m2
10:04 15.4 °C 10 °C 1016.6 hPa WNW 1.4 km/h 11.3 km/h 70% 0.0 mm 113 W/m2
10:09 15.6 °C 9.9 °C 1016.6 hPa WNW 1.4 km/h 11.3 km/h 69% 0.0 mm 104 W/m2
10:14 15.6 °C 9.9 °C 1016.6 hPa WSW 4.7 km/h 8 km/h 69% 0.0 mm 661 W/m2
10:19 15.8 °C 9.9 °C 1016.6 hPa WNW 11.1 km/h 14.5 km/h 68% 0.0 mm 663 W/m2
10:24 15.9 °C 10 °C 1016.6 hPa SSW 1.4 km/h 8 km/h 68% 0.0 mm 696 W/m2
10:29 16 °C 9.7 °C 1016.6 hPa WNW 6.4 km/h 14.5 km/h 66% 0.0 mm 728 W/m2
10:34 16 °C 9.9 °C 1016.6 hPa NW 7.9 km/h 12.9 km/h 67% 0.0 mm 742 W/m2
10:39 15.9 °C 9.8 °C 1016.6 hPa West 6.4 km/h 16.1 km/h 67% 0.0 mm 401 W/m2
10:44 16 °C 9.9 °C 1016.6 hPa NW 4.7 km/h 8 km/h 67% 0.0 mm 830 W/m2
10:49 16.1 °C 9.7 °C 1016.6 hPa NW 7.9 km/h 16.1 km/h 66% 0.0 mm 93 W/m2
10:54 15.8 °C 9.7 °C 1016.6 hPa NE 1.4 km/h 6.4 km/h 67% 0.0 mm 773 W/m2
10:59 16 °C 9.7 °C 1016.6 hPa West 3.2 km/h 9.7 km/h 66% 0.0 mm 877 W/m2
11:04 16.3 °C 9.5 °C 1016.6 hPa NNW 4.7 km/h 9.7 km/h 64% 0.0 mm 861 W/m2
11:09 16.3 °C 9.7 °C 1016.6 hPa WSW 1.4 km/h 9.7 km/h 65% 0.0 mm 803 W/m2
11:14 16.3 °C 9 °C 1016.6 hPa SW 3.2 km/h 12.9 km/h 62% 0.0 mm 823 W/m2
11:19 16.4 °C 9.6 °C 1016.6 hPa Calm   4.8 km/h 64% 0.0 mm 868 W/m2
11:24 16.8 °C 9.7 °C 1016.6 hPa West 11.1 km/h 11.3 km/h 63% 0.0 mm 921 W/m2
11:29 17.2 °C 9.9 °C 1016.6 hPa NNW 3.2 km/h 9.7 km/h 62% 0.0 mm 953 W/m2
11:34 17.1 °C 9.8 °C 1016.6 hPa North 4.7 km/h 9.7 km/h 62% 0.0 mm 925 W/m2
11:39 17.3 °C 9.7 °C 1016.6 hPa NNE 4.7 km/h 8 km/h 61% 0.0 mm 951 W/m2
11:44 17.2 °C 9.6 °C 1016.6 hPa NW 4.7 km/h 11.3 km/h 61% 0.0 mm 977 W/m2
11:49 17.3 °C 9.7 °C 1016.6 hPa West 6.4 km/h 11.3 km/h 61% 0.0 mm 1039 W/m2
11:54 17.4 °C 9.8 °C 1016.6 hPa West 9.7 km/h 12.9 km/h 61% 0.0 mm 942 W/m2
11:59 17.3 °C 9.9 °C 1016.6 hPa WSW 6.4 km/h 9.7 km/h 62% 0.0 mm 942 W/m2
12:04 17.2 °C 9.9 °C 1016.9 hPa WNW 11.1 km/h 17.7 km/h 62% 0.0 mm 1081 W/m2
12:09 17.1 °C 9.8 °C 1016.9 hPa West 4.7 km/h 12.9 km/h 62% 0.0 mm 336 W/m2
12:14 17.4 °C 10.3 °C 1016.9 hPa WSW 13 km/h 12.9 km/h 63% 0.0 mm 1034 W/m2
12:19 17.7 °C 10.3 °C 1016.9 hPa NNW 6.4 km/h 12.9 km/h 62% 0.0 mm 1035 W/m2
12:24 18.1 °C 10 °C 1016.6 hPa WNW 4.7 km/h 6.4 km/h 59% 0.0 mm 1071 W/m2
12:29 18.2 °C 10.1 °C 1016.9 hPa West 13 km/h 20.9 km/h 59% 0.0 mm 1078 W/m2
12:34 17.9 °C 10 °C 1016.9 hPa WNW 3.2 km/h 16.1 km/h 60% 0.0 mm 1079 W/m2
12:39 18 °C 9.6 °C 1016.6 hPa WNW 11.1 km/h 20.9 km/h 58% 0.0 mm 204 W/m2
12:44 17.8 °C 9.4 °C 1016.9 hPa WNW 11.1 km/h 11.3 km/h 58% 0.0 mm 149 W/m2
12:49 17.9 °C 9.3 °C 1016.9 hPa West 14.3 km/h 17.7 km/h 57% 0.0 mm 997 W/m2
12:54 17.9 °C 9.3 °C 1016.6 hPa SW 6.4 km/h 12.9 km/h 57% 0.0 mm 160 W/m2
12:59 17.6 °C 9.2 °C 1016.9 hPa West 13 km/h 19.3 km/h 58% 0.0 mm 172 W/m2
13:04 17.5 °C 8.9 °C 1016.9 hPa West 9.7 km/h 14.5 km/h 57% 0.0 mm 135 W/m2
13:09 17.7 °C 9.3 °C 1016.9 hPa NW 4.7 km/h 19.3 km/h 58% 0.0 mm 784 W/m2
13:14 17.7 °C 9.3 °C 1016.9 hPa West 11.1 km/h 17.7 km/h 58% 0.0 mm 123 W/m2
13:19 17.7 °C 9.3 °C 1016.9 hPa West 11.1 km/h 14.5 km/h 58% 0.0 mm 181 W/m2
13:24 17.8 °C 9.4 °C 1016.9 hPa NNW 4.7 km/h 14.5 km/h 58% 0.0 mm 981 W/m2
13:29 18.2 °C 9.3 °C 1016.9 hPa NW 7.9 km/h 11.3 km/h 56% 0.0 mm 165 W/m2
13:34 18.4 °C 8.9 °C 1016.9 hPa NW 3.2 km/h 17.7 km/h 54% 0.0 mm 965 W/m2
13:39 18.6 °C 8.3 °C 1016.9 hPa NW 9.7 km/h 19.3 km/h 51% 0.0 mm 225 W/m2
13:44 18.6 °C 8.6 °C 1016.9 hPa West 9.7 km/h 16.1 km/h 52% 0.0 mm 211 W/m2
13:49 18.6 °C 8.8 °C 1016.9 hPa NW 7.9 km/h 20.9 km/h 53% 0.0 mm 1048 W/m2
13:54 18.8 °C 9.3 °C 1016.9 hPa NW 13 km/h 19.3 km/h 54% 0.0 mm 1004 W/m2
13:59 18.6 °C 8.6 °C 1016.9 hPa West 6.4 km/h 20.9 km/h 52% 0.0 mm 188 W/m2
14:04 18.5 °C 9 °C 1016.9 hPa WNW 3.2 km/h 19.3 km/h 54% 0.0 mm 149 W/m2
14:09 18.6 °C 9.1 °C 1016.9 hPa WNW 7.9 km/h 17.7 km/h 54% 0.0 mm 1063 W/m2
14:14 18.6 °C 9.1 °C 1016.9 hPa West 9.7 km/h 17.7 km/h 54% 0.0 mm 160 W/m2
14:19 18.6 °C 8.8 °C 1016.9 hPa SW 4.7 km/h 16.1 km/h 53% 0.0 mm 998 W/m2
14:24 18.9 °C 8.8 °C 1016.9 hPa West 9.7 km/h 17.7 km/h 52% 0.0 mm 983 W/m2
14:29 18.9 °C 8.5 °C 1016.9 hPa West 11.1 km/h 19.3 km/h 51% 0.0 mm 199 W/m2
14:34 18.9 °C 8.8 °C 1016.9 hPa WNW 7.9 km/h 17.7 km/h 52% 0.0 mm 954 W/m2
14:39 19.1 °C 9 °C 1016.9 hPa SW 13 km/h 19.3 km/h 52% 0.0 mm 976 W/m2
14:44 19.2 °C 8.5 °C 1016.9 hPa WSW 13 km/h 16.1 km/h 50% 0.0 mm 1018 W/m2
14:49 19.4 °C 9 °C 1016.9 hPa WSW 14.3 km/h 14.5 km/h 51% 0.0 mm 993 W/m2
14:54 19.6 °C 9.2 °C 1016.9 hPa West 9.7 km/h 16.1 km/h 51% 0.0 mm 916 W/m2
14:59 19.6 °C 9.2 °C 1016.9 hPa NNW 7.9 km/h 12.9 km/h 51% 0.0 mm 279 W/m2
15:04 19.6 °C 9.2 °C 1016.6 hPa South 3.2 km/h 16.1 km/h 51% 0.0 mm 1021 W/m2
15:09 19.6 °C 8.9 °C 1016.9 hPa WSW 4.7 km/h 11.3 km/h 50% 0.0 mm 290 W/m2
15:14 19.4 °C 9 °C 1016.6 hPa WNW 7.9 km/h 16.1 km/h 51% 0.0 mm 214 W/m2
15:19 19.2 °C 9.1 °C 1016.9 hPa NW 14.3 km/h 17.7 km/h 52% 0.0 mm 390 W/m2
15:24 19.2 °C 9.7 °C 1016.6 hPa West 9.7 km/h 16.1 km/h 54% 0.0 mm 969 W/m2
15:29 19.3 °C 9.2 °C 1016.6 hPa West 11.1 km/h 16.1 km/h 52% 0.0 mm 896 W/m2
15:34 19.4 °C 9.3 °C 1016.6 hPa WNW 6.4 km/h 17.7 km/h 52% 0.0 mm 125 W/m2
15:39 19.3 °C 9.2 °C 1016.6 hPa West 4.7 km/h 14.5 km/h 52% 0.0 mm 977 W/m2
15:44 19.7 °C 9.6 °C 1016.6 hPa WNW 4.7 km/h 14.5 km/h 52% 0.0 mm 928 W/m2
15:49 19.9 °C 9.8 °C 1016.6 hPa WSW 13 km/h 16.1 km/h 52% 0.0 mm 499 W/m2
15:54 19.7 °C 9 °C 1016.9 hPa WSW 7.9 km/h 16.1 km/h 50% 0.0 mm 220 W/m2
15:59 19.6 °C 9.8 °C 1016.6 hPa NW 4.7 km/h 12.9 km/h 53% 0.0 mm 854 W/m2
16:04 19.8 °C 9.7 °C 1016.6 hPa WNW 6.4 km/h 17.7 km/h 52% 0.0 mm 214 W/m2
16:09 19.9 °C 9.5 °C 1016.6 hPa NW 6.4 km/h 17.7 km/h 51% 0.0 mm 842 W/m2
16:15 19.7 °C 9.6 °C 1016.6 hPa West 11.1 km/h 14.5 km/h 52% 0.0 mm 141 W/m2
16:20 19.4 °C 9.6 °C 1016.6 hPa WNW 4.7 km/h 17.7 km/h 53% 0.0 mm 188 W/m2
16:25 19.3 °C 9.2 °C 1016.9 hPa WNW 7.9 km/h 12.9 km/h 52% 0.0 mm 213 W/m2
16:30 19.4 °C 9.6 °C 1016.6 hPa NW 6.4 km/h 14.5 km/h 53% 0.0 mm 891 W/m2
16:35 19.8 °C 9.7 °C 1016.6 hPa West 9.7 km/h 11.3 km/h 52% 0.0 mm 251 W/m2
16:40 19.8 °C 9.1 °C 1016.9 hPa SW 9.7 km/h 14.5 km/h 50% 0.0 mm 195 W/m2
16:45 19.6 °C 9.2 °C 1016.6 hPa NW 4.7 km/h 11.3 km/h 51% 0.0 mm 761 W/m2
16:50 19.8 °C 9.4 °C 1016.6 hPa WNW 6.4 km/h 17.7 km/h 51% 0.0 mm 652 W/m2
16:55 20.1 °C 9.4 °C 1016.6 hPa NNW 4.7 km/h 8 km/h 50% 0.0 mm 693 W/m2
17:00 20.3 °C 9.2 °C 1016.6 hPa NW 9.7 km/h 11.3 km/h 49% 0.0 mm 677 W/m2
17:05 20.2 °C 9.4 °C 1016.9 hPa West 3.2 km/h 8 km/h 50% 0.0 mm 193 W/m2
17:10 20.1 °C 9.6 °C 1016.6 hPa West 4.7 km/h 11.3 km/h 51% 0.0 mm 680 W/m2
17:15 20.1 °C 9.4 °C 1016.9 hPa WNW 4.7 km/h 14.5 km/h 50% 0.0 mm 181 W/m2
17:20 19.8 °C 9.4 °C 1016.9 hPa WNW 7.9 km/h 8 km/h 51% 0.0 mm 257 W/m2
17:25 19.6 °C 9.8 °C 1016.6 hPa WSW 6.4 km/h 14.5 km/h 53% 0.0 mm 584 W/m2
17:30 19.9 °C 9.8 °C 1016.6 hPa WNW 11.1 km/h 17.7 km/h 52% 0.0 mm 578 W/m2
17:35 20.2 °C 10.3 °C 1016.9 hPa NW 11.1 km/h 11.3 km/h 53% 0.0 mm 582 W/m2
17:40 20.3 °C 9.8 °C 1016.9 hPa WNW 6.4 km/h 17.7 km/h 51% 0.0 mm 571 W/m2
17:45 20.3 °C 9.8 °C 1016.9 hPa WSW 13 km/h 16.1 km/h 51% 0.0 mm 526 W/m2
17:50 20.3 °C 9.8 °C 1016.9 hPa WNW 11.1 km/h 11.3 km/h 51% 0.0 mm 517 W/m2
17:55 20.3 °C 9.8 °C 1016.9 hPa NW 3.2 km/h 6.4 km/h 51% 0.0 mm 265 W/m2
18:00 20.1 °C 9.9 °C 1016.9 hPa West 3.2 km/h 22.5 km/h 52% 0.0 mm 483 W/m2
18:05 19.8 °C 9.7 °C 1016.9 hPa West 11.1 km/h 12.9 km/h 52% 0.0 mm 167 W/m2
18:10 19.7 °C 9.6 °C 1016.9 hPa WSW 6.4 km/h 22.5 km/h 52% 0.0 mm 487 W/m2
18:15 19.9 °C 9.8 °C 1016.9 hPa Calm   11.3 km/h 52% 0.0 mm 135 W/m2
18:20 19.8 °C 9.7 °C 1016.9 hPa West 9.7 km/h 12.9 km/h 52% 0.0 mm 504 W/m2
18:25 20 °C 9.6 °C 1016.9 hPa West 11.1 km/h 24.1 km/h 51% 0.0 mm 475 W/m2
18:30 19.8 °C 9.4 °C 1016.9 hPa WSW 7.9 km/h 12.9 km/h 51% 0.0 mm 95 W/m2
18:40 19.4 °C 9.6 °C 1016.9 hPa WSW 14.3 km/h 16.1 km/h 53% 0.0 mm 178 W/m2
18:45 19.3 °C 9.5 °C 1016.9 hPa WNW 6.4 km/h 11.3 km/h 53% 0.0 mm 86 W/m2
18:50 19.3 °C 9.8 °C 1016.9 hPa WNW 1.4 km/h 11.3 km/h 54% 0.0 mm 144 W/m2
18:55 19.7 °C 10.4 °C 1016.9 hPa NW 3.2 km/h 4.8 km/h 55% 0.0 mm 144 W/m2
19:00 20.1 °C 9.9 °C 1016.9 hPa WSW 3.2 km/h 8 km/h 52% 0.0 mm 111 W/m2
19:05 20.1 °C 8.4 °C 1016.9 hPa SW 11.1 km/h 20.9 km/h 47% 0.0 mm 91 W/m2
19:10 19.9 °C 8.3 °C 1016.9 hPa NW 16.3 km/h 17.7 km/h 47% 0.0 mm 70 W/m2
19:15 19.7 °C 8.1 °C 1017.3 hPa NW 9.7 km/h 19.3 km/h 47% 0.0 mm 67 W/m2
19:20 19.2 °C 7.9 °C 1017.3 hPa WSW 4.7 km/h 11.3 km/h 48% 0.0 mm 69 W/m2
19:25 19 °C 7.7 °C 1017.3 hPa West 13 km/h 19.3 km/h 48% 0.0 mm 88 W/m2
19:35 18.8 °C 8.2 °C 1017.3 hPa West 4.7 km/h 11.3 km/h 50% 0.0 mm 107 W/m2
19:40 18.8 °C 8.2 °C 1017.3 hPa West 9.7 km/h 11.3 km/h 50% 0.0 mm 84 W/m2
19:45 18.8 °C 8.2 °C 1017.3 hPa West 11.1 km/h 17.7 km/h 50% 0.0 mm 76 W/m2
19:50 18.7 °C 7.8 °C 1017.3 hPa West 13 km/h 19.3 km/h 49% 0.0 mm 69 W/m2
19:55 18.6 °C 8 °C 1017.6 hPa West 9.7 km/h 11.3 km/h 50% 0.0 mm 58 W/m2
20:00 18.6 °C 8 °C 1017.6 hPa WNW 6.4 km/h 6.4 km/h 50% 0.0 mm 56 W/m2
20:05 18.6 °C 8 °C 1017.6 hPa West 9.7 km/h 12.9 km/h 50% 0.0 mm 56 W/m2
20:10 18.5 °C 7.9 °C 1017.6 hPa West 6.4 km/h 12.9 km/h 50% 0.0 mm 53 W/m2
20:15 18.4 °C 8.1 °C 1017.6 hPa West 6.4 km/h 9.7 km/h 51% 0.0 mm 49 W/m2
20:20 18.4 °C 7.8 °C 1017.6 hPa West 9.7 km/h 11.3 km/h 50% 0.0 mm 39 W/m2
20:25 18.3 °C 7.7 °C 1017.6 hPa WNW 3.2 km/h 9.7 km/h 50% 0.0 mm 21 W/m2
20:30 18.3 °C 7.7 °C 1018.0 hPa West 4.7 km/h 14.5 km/h 50% 0.0 mm 19 W/m2
20:35 18.2 °C 7.6 °C 1018.0 hPa NNW 6.4 km/h 14.5 km/h 50% 0.0 mm 21 W/m2
20:40 18.2 °C 7.6 °C 1018.0 hPa West 6.4 km/h 16.1 km/h 50% 0.0 mm 26 W/m2
20:45 18.1 °C 7.8 °C 1018.0 hPa WSW 6.4 km/h 11.3 km/h 51% 0.0 mm 26 W/m2
20:50 18 °C 7.7 °C 1018.0 hPa West 11.1 km/h 16.1 km/h 51% 0.0 mm 28 W/m2
20:55 18 °C 8 °C 1018.0 hPa West 4.7 km/h 6.4 km/h 52% 0.0 mm 26 W/m2
21:00 17.9 °C 7.9 °C 1018.0 hPa West 4.7 km/h 12.9 km/h 52% 0.0 mm 26 W/m2
21:05 17.8 °C 7.8 °C 1018.0 hPa SW 4.7 km/h 12.9 km/h 52% 0.0 mm 23 W/m2
21:10 17.8 °C 8.1 °C 1018.0 hPa WNW 4.7 km/h 8 km/h 53% 0.0 mm 23 W/m2
21:15 17.7 °C 8 °C 1018.0 hPa NW 6.4 km/h 9.7 km/h 53% 0.0 mm 21 W/m2
21:20 17.7 °C 8 °C 1018.3 hPa WNW 3.2 km/h 6.4 km/h 53% 0.0 mm 14 W/m2
21:25 17.6 °C 8.2 °C 1018.3 hPa West 3.2 km/h 8 km/h 54% 0.0 mm 9 W/m2
21:30 17.6 °C 8.2 °C 1018.3 hPa West 3.2 km/h 4.8 km/h 54% 0.0 mm 0 W/m2
21:35 17.5 °C 8.1 °C 1018.3 hPa West 3.2 km/h 9.7 km/h 54% 0.0 mm 0 W/m2
21:40 17.4 °C 8 °C 1018.3 hPa WNW 4.7 km/h 11.3 km/h 54% 0.0 mm 0 W/m2
21:45 17.3 °C 7.9 °C 1018.3 hPa West 6.4 km/h 12.9 km/h 54% 0.0 mm 0 W/m2
21:50 17.3 °C 8.2 °C 1018.6 hPa Calm   4.8 km/h 55% 0.0 mm 0 W/m2
21:55 17.2 °C 8.1 °C 1018.6 hPa NW 3.2 km/h 12.9 km/h 55% 0.0 mm 0 W/m2
22:00 17.2 °C 8.1 °C 1018.6 hPa West 1.4 km/h 11.3 km/h 55% 0.0 mm 0 W/m2
22:05 17.1 °C 8.3 °C 1018.6 hPa West 1.4 km/h 8 km/h 56% 0.0 mm 0 W/m2
22:10 17.1 °C 8.3 °C 1019.0 hPa WNW 6.4 km/h 11.3 km/h 56% 0.0 mm 0 W/m2
22:15 17 °C 8.4 °C 1019.0 hPa NW 3.2 km/h 3.2 km/h 57% 0.0 mm 0 W/m2
22:20 16.9 °C 8.3 °C 1019.0 hPa WNW 6.4 km/h 11.3 km/h 57% 0.0 mm 0 W/m2
22:25 16.9 °C 8.3 °C 1019.0 hPa WNW 1.4 km/h 4.8 km/h 57% 0.0 mm 0 W/m2
22:30 16.9 °C 8.6 °C 1019.0 hPa WNW 1.4 km/h 3.2 km/h 58% 0.0 mm 0 W/m2
22:35 16.8 °C 8.5 °C 1019.0 hPa West 1.4 km/h 3.2 km/h 58% 0.0 mm 0 W/m2
22:40 16.8 °C 8.5 °C 1019.0 hPa NW 4.7 km/h 12.9 km/h 58% 0.0 mm 0 W/m2
22:45 16.7 °C 8.6 °C 1019.0 hPa WNW 1.4 km/h 4.8 km/h 59% 0.0 mm 0 W/m2
22:50 16.7 °C 8.6 °C 1019.0 hPa NW 3.2 km/h 12.9 km/h 59% 0.0 mm 0 W/m2
22:55 16.7 °C 8.6 °C 1019.0 hPa NW 3.2 km/h 6.4 km/h 59% 0.0 mm 0 W/m2
23:00 16.6 °C 8.6 °C 1019.0 hPa West 3.2 km/h 9.7 km/h 59% 0.0 mm 0 W/m2
23:06 16.5 °C 8.7 °C 1019.0 hPa NNW 3.2 km/h 6.4 km/h 60% 0.0 mm 0 W/m2
23:11 16.4 °C 8.6 °C 1019.3 hPa Calm   9.7 km/h 60% 0.0 mm 0 W/m2
23:16 16.3 °C 8.5 °C 1019.0 hPa NW 3.2 km/h 4.8 km/h 60% 0.0 mm 0 W/m2
23:21 16.3 °C 8.8 °C 1019.3 hPa WNW 3.2 km/h 9.7 km/h 61% 0.0 mm 0 W/m2
23:26 16.3 °C 8.8 °C 1019.3 hPa West 4.7 km/h 8 km/h 61% 0.0 mm 0 W/m2
23:31 16.2 °C 8.7 °C 1019.3 hPa NW 4.7 km/h 9.7 km/h 61% 0.0 mm 0 W/m2
23:36 16.2 °C 8.7 °C 1019.3 hPa NW 4.7 km/h 8 km/h 61% 0.0 mm 0 W/m2
23:41 16.2 °C 8.9 °C 1019.3 hPa WNW 1.4 km/h 6.4 km/h 62% 0.0 mm 0 W/m2
23:46 16.2 °C 8.9 °C 1019.3 hPa NW 4.7 km/h 11.3 km/h 62% 0.0 mm 0 W/m2
23:51 16.2 °C 8.9 °C 1019.3 hPa West 3.2 km/h 9.7 km/h 62% 0.0 mm 0 W/m2
23:56 16.2 °C 8.9 °C 1019.3 hPa West 9.7 km/h 9.7 km/h 62% 0.0 mm 0 W/m2
Juneau County Weather
Compliments of Weather Underground - 4 mb